Flight Track Log - Related Links

Times and Time Zones

All times are in EDT time to prevent confusion due to time zone crossing. See the UCA3597 flight status page for this flight to view local times or setup timezone preferences in your user account.

Time Position Orientation Groundspeed Altitude Reporting Facility
EDT Latitude Longitude Course Direction KTS MPH feet Rate Location/Type
Fri 05:48:00 PM 39.2922 -77.3105 19° North  Level Estimated
Fri 05:49:00 PM 39.3496 -77.2854 19° North  Level Estimated
Fri 05:50:00 PM 39.4071 -77.2603 19° North  Level Estimated
Fri 05:51:00 PM 39.4645 -77.2352 19° North  Level Estimated
Fri 05:52:00 PM 39.5219 -77.2100 19° North  Level Estimated
Fri 05:53:00 PM 39.5793 -77.1848 19° North  Level Estimated
Fri 05:54:00 PM 39.6367 -77.1595 19° North  Level Estimated
Fri 05:55:00 PM 39.6941 -77.1342 19° North  Level Estimated
Fri 05:56:00 PM 39.7515 -77.1089 19° North  Level Estimated
Fri 05:57:00 PM 39.8089 -77.0835 19° North  Level Estimated
Fri 05:58:00 PM 39.8663 -77.0580 19° North  Level Estimated
Fri 05:59:00 PM 39.9237 -77.0326 19° North  Level Estimated
Fri 06:00:00 PM 39.9811 -77.0070 19° North  Level Estimated
Fri 06:01:00 PM 40.0385 -76.9815 19° North  Level Estimated
Fri 06:02:00 PM 40.0958 -76.9559 19° North  Level Estimated
Fri 06:03:00 PM 40.1532 -76.9302 19° North  Level Estimated
Fri 06:04:00 PM 40.2105 -76.9045 19° North  Level Estimated
Fri 06:05:00 PM 40.2679 -76.8788 19° North  Level Estimated
Fri 06:06:00 PM 40.3252 -76.8530 19° North  Level Estimated
Fri 06:07:00 PM 40.3826 -76.8272 19° North  Level Estimated
Fri 06:08:00 PM 40.4399 -76.8014 19° North  Level Estimated
Fri 06:09:00 PM 40.4972 -76.7755 19° North  Level Estimated
Fri 06:10:00 PM 40.5546 -76.7495 19° North  Level Estimated
Fri 06:11:00 PM 40.6119 -76.7235 19° North  Level Estimated
Fri 06:12:00 PM 40.6692 -76.6975 19° North  Level Estimated
Fri 06:13:00 PM 40.7265 -76.6714 19° North  Level Estimated
Fri 06:14:00 PM 40.7838 -76.6452 19° North  Level Estimated
Fri 06:15:00 PM 40.8411 -76.6191 19° North  Level Estimated
Fri 06:16:00 PM 40.8984 -76.5928 19° North  Level Estimated
Fri 06:17:00 PM 40.9557 -76.5666 19° North  Level Estimated
Fri 06:18:00 PM 41.0129 -76.5403 19° North  Level Estimated
Fri 06:19:00 PM 41.0702 -76.5139 19° North  Level Estimated
Fri 06:20:00 PM 41.1274 -76.4875 19° North  Level Estimated
Fri 06:21:00 PM 41.1847 -76.4610 19° North  Level Estimated
Fri 06:22:00 PM 41.2420 -76.4345 19° North  Level Estimated
Fri 06:23:00 PM 41.2992 -76.4080 19° North  Level Estimated
Fri 06:24:00 PM 41.3564 -76.3814 19° North  Level Estimated
Fri 06:25:00 PM 41.4137 -76.3548 19° North  Level Estimated
Fri 06:26:00 PM 41.4709 -76.3281 19° North  Level Estimated
Fri 06:27:00 PM 41.5281 -76.3014 19° North  Level Estimated
Fri 06:28:00 PM 41.5853 -76.2746 19° North  Level Estimated
Fri 06:29:00 PM 41.6425 -76.2477 19° North  Level Estimated
Fri 06:30:00 PM 41.6997 -76.2209 19° North  Level Estimated
Fri 06:31:00 PM 41.7569 -76.1939 19° North  Level Estimated
Fri 06:32:00 PM 41.8141 -76.1670 19° North  Level Estimated
Fri 06:33:00 PM 41.8713 -76.1400 19° North  Level Estimated
Fri 06:34:00 PM 41.9285 -76.1129 19° North  Level Estimated
Fri 06:35:00 PM 41.9856 -76.0858 19° North  Level Estimated
Fri 06:36:00 PM 42.0428 -76.0586 19° North  Level Estimated
Fri 06:37:00 PM 42.1000 -76.0314 19° North  Level Estimated
Fri 06:38:00 PM 42.1571 -76.0041 19° North  Level Estimated
Fri 06:39:00 PM 42.2084 -75.9796 19° North  Level Estimated
Fri 06:40:00 PM 42.2084 -75.9796 35° Northeast  Level Estimated
Fri 06:41:00 PM 42.2084 -75.9796 35° Northeast  Level Estimated
Fri 06:42:00 PM 42.2084 -75.9796 35° Northeast  Level Estimated
Fri 06:43:00 PM 42.2084 -75.9796 35° Northeast  Level Estimated
Fri 06:44:00 PM 42.2084 -75.9796 35° Northeast  Level Estimated
Fri 06:45:00 PM 42.2084 -75.9796 35° Northeast  Level Estimated
Fri 06:46:00 PM 42.2084 -75.9796 35° Northeast  Level Estimated
Fri 06:47:00 PM 42.2084 -75.9796 35° Northeast  Level Estimated
Fri 06:48:00 PM 42.2084 -75.9796 35° Northeast  Level Estimated
Fri 06:49:00 PM 42.2084 -75.9796 35° Northeast  Level Estimated
Fri 06:50:00 PM 42.2084 -75.9796 35° Northeast  Level Estimated

Login

Don't have an account? Register now (free) for customized features, flight alerts, and more!